sensor_id;sensor_type;location;lat;lon;timestamp;pressure;altitude;pressure_sealevel;temperature;humidity
85266;BME280;75676;49.522;19.724;2024-02-04T00:01:52;93900.34;;;3.20;95.12
85266;BME280;75676;49.522;19.724;2024-02-04T00:04:17;93896.25;;;3.22;94.80
85266;BME280;75676;49.522;19.724;2024-02-04T00:06:43;93892.53;;;3.20;94.65
85266;BME280;75676;49.522;19.724;2024-02-04T00:09:09;93885.06;;;3.22;94.73
85266;BME280;75676;49.522;19.724;2024-02-04T00:11:34;93888.75;;;3.24;94.37
85266;BME280;75676;49.522;19.724;2024-02-04T00:14:00;93894.06;;;3.17;94.56
85266;BME280;75676;49.522;19.724;2024-02-04T00:16:26;93884.03;;;3.09;94.99
85266;BME280;75676;49.522;19.724;2024-02-04T00:18:52;93879.94;;;3.11;94.94
85266;BME280;75676;49.522;19.724;2024-02-04T00:21:18;93883.56;;;3.21;94.48
85266;BME280;75676;49.522;19.724;2024-02-04T00:23:44;93884.34;;;3.18;94.34
85266;BME280;75676;49.522;19.724;2024-02-04T00:26:11;93885.81;;;3.19;94.53
85266;BME280;75676;49.522;19.724;2024-02-04T00:28:40;93875.41;;;3.15;94.10
85266;BME280;75676;49.522;19.724;2024-02-04T00:31:08;93871.72;;;3.09;94.55
85266;BME280;75676;49.522;19.724;2024-02-04T00:33:34;93867.53;;;3.19;94.68
85266;BME280;75676;49.522;19.724;2024-02-04T00:36:00;93856.03;;;3.13;94.58
85266;BME280;75676;49.522;19.724;2024-02-04T00:38:26;93858.66;;;3.13;94.26
85266;BME280;75676;49.522;19.724;2024-02-04T00:40:52;93862.72;;;3.14;94.14
85266;BME280;75676;49.522;19.724;2024-02-04T00:43:20;93857.88;;;3.16;94.01
85266;BME280;75676;49.522;19.724;2024-02-04T00:45:46;93863.78;;;3.20;94.26
85266;BME280;75676;49.522;19.724;2024-02-04T00:48:11;93870.56;;;3.14;94.21
85266;BME280;75676;49.522;19.724;2024-02-04T00:50:37;93859.72;;;3.15;93.90
85266;BME280;75676;49.522;19.724;2024-02-04T00:53:03;93850.09;;;3.09;93.96
85266;BME280;75676;49.522;19.724;2024-02-04T00:55:29;93852.69;;;3.09;93.89
85266;BME280;75676;49.522;19.724;2024-02-04T00:57:55;93849.38;;;3.05;93.79
85266;BME280;75676;49.522;19.724;2024-02-04T01:00:25;93858.28;;;3.11;94.05
85266;BME280;75676;49.522;19.724;2024-02-04T01:02:51;93859.78;;;3.08;94.01
85266;BME280;75676;49.522;19.724;2024-02-04T01:05:19;93866.16;;;3.07;94.18
85266;BME280;75676;49.522;19.724;2024-02-04T01:07:51;93871.47;;;2.97;94.45
85266;BME280;75676;49.522;19.724;2024-02-04T01:10:17;93857.59;;;3.03;94.44
85266;BME280;75676;49.522;19.724;2024-02-04T01:12:42;93848.31;;;2.99;94.76
85266;BME280;75676;49.522;19.724;2024-02-04T01:15:09;93859.94;;;2.94;94.83
85266;BME280;75676;49.522;19.724;2024-02-04T01:17:36;93849.06;;;2.99;94.86
85266;BME280;75676;49.522;19.724;2024-02-04T01:20:02;93842.44;;;2.91;95.16
85266;BME280;75676;49.522;19.724;2024-02-04T01:22:28;93846.88;;;2.94;95.09
85266;BME280;75676;49.522;19.724;2024-02-04T01:24:55;93835.69;;;2.93;94.71
85266;BME280;75676;49.522;19.724;2024-02-04T01:27:21;93841.31;;;2.88;94.98
85266;BME280;75676;49.522;19.724;2024-02-04T01:29:47;93839.09;;;2.87;95.37
85266;BME280;75676;49.522;19.724;2024-02-04T01:32:13;93846.19;;;2.86;95.24
85266;BME280;75676;49.522;19.724;2024-02-04T01:34:38;93841.69;;;2.90;94.79
85266;BME280;75676;49.522;19.724;2024-02-04T01:37:04;93828.22;;;2.92;95.23
85266;BME280;75676;49.522;19.724;2024-02-04T01:39:29;93823.41;;;2.90;94.89
85266;BME280;75676;49.522;19.724;2024-02-04T01:41:55;93825.66;;;2.88;94.93
85266;BME280;75676;49.522;19.724;2024-02-04T01:44:21;93812.59;;;2.88;94.72
85266;BME280;75676;49.522;19.724;2024-02-04T01:46:48;93804.81;;;2.85;94.89
85266;BME280;75676;49.522;19.724;2024-02-04T01:49:14;93815.97;;;2.89;94.64
85266;BME280;75676;49.522;19.724;2024-02-04T01:51:41;93805.13;;;2.90;94.31
85266;BME280;75676;49.522;19.724;2024-02-04T01:54:07;93803.69;;;2.86;94.78
85266;BME280;75676;49.522;19.724;2024-02-04T01:56:33;93812.94;;;2.94;94.77
85266;BME280;75676;49.522;19.724;2024-02-04T01:59:00;93809.56;;;2.93;94.24
85266;BME280;75676;49.522;19.724;2024-02-04T02:01:26;93811.88;;;2.88;94.36
85266;BME280;75676;49.522;19.724;2024-02-04T02:03:53;93805.47;;;2.92;94.53
85266;BME280;75676;49.522;19.724;2024-02-04T02:06:18;93814.41;;;2.95;93.94
85266;BME280;75676;49.522;19.724;2024-02-04T02:08:45;93801.31;;;2.99;93.75
85266;BME280;75676;49.522;19.724;2024-02-04T02:13:44;93813.28;;;2.96;93.81
85266;BME280;75676;49.522;19.724;2024-02-04T02:16:15;93816.28;;;2.94;93.85
85266;BME280;75676;49.522;19.724;2024-02-04T02:18:53;93803.66;;;2.89;93.86
85266;BME280;75676;49.522;19.724;2024-02-04T02:24:10;93814.47;;;2.91;93.38
85266;BME280;75676;49.522;19.724;2024-02-04T02:26:36;93808.50;;;2.91;93.37
85266;BME280;75676;49.522;19.724;2024-02-04T02:29:05;93795.75;;;2.97;93.47
85266;BME280;75676;49.522;19.724;2024-02-04T02:31:31;93808.44;;;2.94;93.33
85266;BME280;75676;49.522;19.724;2024-02-04T02:34:00;93809.09;;;3.06;92.83
85266;BME280;75676;49.522;19.724;2024-02-04T02:36:29;93815.06;;;3.03;92.45
85266;BME280;75676;49.522;19.724;2024-02-04T02:39:08;93815.00;;;3.10;91.68
85266;BME280;75676;49.522;19.724;2024-02-04T02:41:36;93825.13;;;3.08;91.96
85266;BME280;75676;49.522;19.724;2024-02-04T02:44:04;93835.56;;;3.08;92.24
85266;BME280;75676;49.522;19.724;2024-02-04T02:46:30;93823.13;;;3.19;91.53
85266;BME280;75676;49.522;19.724;2024-02-04T02:48:56;93806.75;;;3.15;91.85
85266;BME280;75676;49.522;19.724;2024-02-04T02:51:23;93795.25;;;3.09;92.06
85266;BME280;75676;49.522;19.724;2024-02-04T02:53:48;93786.66;;;3.12;92.00
85266;BME280;75676;49.522;19.724;2024-02-04T02:56:14;93784.41;;;3.10;92.20
85266;BME280;75676;49.522;19.724;2024-02-04T02:58:40;93784.41;;;3.10;91.96
85266;BME280;75676;49.522;19.724;2024-02-04T03:01:05;93775.38;;;3.18;91.28
85266;BME280;75676;49.522;19.724;2024-02-04T03:03:31;93777.63;;;3.16;91.38
85266;BME280;75676;49.522;19.724;2024-02-04T03:05:57;93773.84;;;3.21;91.10
85266;BME280;75676;49.522;19.724;2024-02-04T03:08:22;93770.84;;;3.22;91.17
85266;BME280;75676;49.522;19.724;2024-02-04T03:10:48;93774.84;;;3.30;90.99
85266;BME280;75676;49.522;19.724;2024-02-04T03:13:14;93769.25;;;3.32;91.01
85266;BME280;75676;49.522;19.724;2024-02-04T03:15:40;93770.00;;;3.32;91.56
85266;BME280;75676;49.522;19.724;2024-02-04T03:18:08;93778.56;;;3.33;90.91
85266;BME280;75676;49.522;19.724;2024-02-04T03:20:34;93780.50;;;3.29;91.60
85266;BME280;75676;49.522;19.724;2024-02-04T03:22:59;93768.47;;;3.35;91.78
85266;BME280;75676;49.522;19.724;2024-02-04T03:25:25;93776.72;;;3.30;91.30
85266;BME280;75676;49.522;19.724;2024-02-04T03:27:53;93772.56;;;3.36;91.64
85266;BME280;75676;49.522;19.724;2024-02-04T03:30:19;93783.75;;;3.36;91.74
85266;BME280;75676;49.522;19.724;2024-02-04T03:32:45;93781.94;;;3.33;91.59
85266;BME280;75676;49.522;19.724;2024-02-04T03:35:10;93778.25;;;3.27;91.71
85266;BME280;75676;49.522;19.724;2024-02-04T03:37:36;93777.13;;;3.28;91.87
85266;BME280;75676;49.522;19.724;2024-02-04T03:40:02;93773.78;;;3.28;92.11
85266;BME280;75676;49.522;19.724;2024-02-04T03:42:28;93759.59;;;3.29;92.40
85266;BME280;75676;49.522;19.724;2024-02-04T03:44:54;93752.22;;;3.20;92.60
85266;BME280;75676;49.522;19.724;2024-02-04T03:47:19;93752.22;;;3.20;92.92
85266;BME280;75676;49.522;19.724;2024-02-04T03:49:45;93744.03;;;3.18;92.80
85266;BME280;75676;49.522;19.724;2024-02-04T03:52:11;93751.09;;;3.21;92.39
85266;BME280;75676;49.522;19.724;2024-02-04T03:54:37;93752.84;;;3.31;92.53
85266;BME280;75676;49.522;19.724;2024-02-04T03:57:03;93752.53;;;3.26;92.31
85266;BME280;75676;49.522;19.724;2024-02-04T03:59:28;93746.56;;;3.25;92.63
85266;BME280;75676;49.522;19.724;2024-02-04T04:01:54;93751.41;;;3.27;92.40
85266;BME280;75676;49.522;19.724;2024-02-04T04:04:20;93758.88;;;3.25;92.62
85266;BME280;75676;49.522;19.724;2024-02-04T04:06:46;93756.25;;;3.25;92.63
85266;BME280;75676;49.522;19.724;2024-02-04T04:09:13;93751.03;;;3.25;92.35
85266;BME280;75676;49.522;19.724;2024-02-04T04:11:39;93764.16;;;3.21;92.70
85266;BME280;75676;49.522;19.724;2024-02-04T04:14:05;93770.16;;;3.18;92.88
85266;BME280;75676;49.522;19.724;2024-02-04T04:16:31;93755.94;;;3.23;92.87
85266;BME280;75676;49.522;19.724;2024-02-04T04:18:57;93766.50;;;3.12;93.30
85266;BME280;75676;49.522;19.724;2024-02-04T04:21:24;93763.78;;;3.19;93.60
85266;BME280;75676;49.522;19.724;2024-02-04T04:23:50;93760.91;;;3.10;93.62
85266;BME280;75676;49.522;19.724;2024-02-04T04:26:15;93751.47;;;3.20;93.17
85266;BME280;75676;49.522;19.724;2024-02-04T04:28:42;93755.94;;;3.23;93.42
85266;BME280;75676;49.522;19.724;2024-02-04T04:31:08;93757.81;;;3.19;93.47
85266;BME280;75676;49.522;19.724;2024-02-04T04:33:36;93752.91;;;3.24;92.86
85266;BME280;75676;49.522;19.724;2024-02-04T04:36:02;93752.56;;;3.22;93.22
85266;BME280;75676;49.522;19.724;2024-02-04T04:38:27;93752.88;;;3.28;92.86
85266;BME280;75676;49.522;19.724;2024-02-04T04:40:53;93759.63;;;3.25;93.24
85266;BME280;75676;49.522;19.724;2024-02-04T04:43:19;93761.47;;;3.28;92.49
85266;BME280;75676;49.522;19.724;2024-02-04T04:45:45;93764.78;;;3.32;92.83
85266;BME280;75676;49.522;19.724;2024-02-04T04:48:10;93764.06;;;3.28;92.75
85266;BME280;75676;49.522;19.724;2024-02-04T04:50:37;93769.63;;;3.30;92.49
85266;BME280;75676;49.522;19.724;2024-02-04T04:53:03;93774.72;;;3.45;92.20
85266;BME280;75676;49.522;19.724;2024-02-04T04:55:29;93760.28;;;3.33;92.46
85266;BME280;75676;49.522;19.724;2024-02-04T04:57:55;93777.41;;;3.37;91.94
85266;BME280;75676;49.522;19.724;2024-02-04T05:00:20;93782.56;;;3.41;92.61
85266;BME280;75676;49.522;19.724;2024-02-04T05:02:46;93779.63;;;3.39;92.19
85266;BME280;75676;49.522;19.724;2024-02-04T05:05:13;93784.13;;;3.38;92.46
85266;BME280;75676;49.522;19.724;2024-02-04T05:07:39;93782.69;;;3.34;92.46
85266;BME280;75676;49.522;19.724;2024-02-04T05:10:06;93795.84;;;3.23;92.98
85266;BME280;75676;49.522;19.724;2024-02-04T05:12:33;93796.97;;;3.22;92.68
85266;BME280;75676;49.522;19.724;2024-02-04T05:14:59;93807.06;;;3.24;93.12
85266;BME280;75676;49.522;19.724;2024-02-04T05:17:26;93784.22;;;3.28;92.78
85266;BME280;75676;49.522;19.724;2024-02-04T05:19:52;93777.22;;;3.21;93.03
85266;BME280;75676;49.522;19.724;2024-02-04T05:22:18;93764.19;;;3.18;93.53
85266;BME280;75676;49.522;19.724;2024-02-04T05:24:44;93757.56;;;3.10;93.67
85266;BME280;75676;49.522;19.724;2024-02-04T05:27:09;93767.63;;;3.11;93.13
85266;BME280;75676;49.522;19.724;2024-02-04T05:29:35;93765.00;;;3.11;93.71
85266;BME280;75676;49.522;19.724;2024-02-04T05:32:01;93770.22;;;3.11;93.27
85266;BME280;75676;49.522;19.724;2024-02-04T05:34:26;93764.31;;;3.07;93.97
85266;BME280;75676;49.522;19.724;2024-02-04T05:36:52;93752.34;;;3.10;93.78
85266;BME280;75676;49.522;19.724;2024-02-04T05:39:18;93745.72;;;3.02;93.78
85266;BME280;75676;49.522;19.724;2024-02-04T05:41:44;93741.19;;;3.06;94.13
85266;BME280;75676;49.522;19.724;2024-02-04T05:44:10;93739.34;;;3.03;93.83
85266;BME280;75676;49.522;19.724;2024-02-04T05:46:36;93740.53;;;2.98;94.33
85266;BME280;75676;49.522;19.724;2024-02-04T05:49:02;93750.53;;;3.03;94.02
85266;BME280;75676;49.522;19.724;2024-02-04T05:51:28;93755.00;;;3.03;94.11
85266;BME280;75676;49.522;19.724;2024-02-04T05:53:54;93746.03;;;3.07;93.93
85266;BME280;75676;49.522;19.724;2024-02-04T05:56:20;93750.16;;;3.05;94.31
85266;BME280;75676;49.522;19.724;2024-02-04T05:58:46;93750.50;;;3.07;94.11
85266;BME280;75676;49.522;19.724;2024-02-04T06:01:12;93754.94;;;3.10;93.91
85266;BME280;75676;49.522;19.724;2024-02-04T06:03:38;93747.06;;;3.13;93.81
85266;BME280;75676;49.522;19.724;2024-02-04T06:06:04;93754.44;;;3.22;93.31
85266;BME280;75676;49.522;19.724;2024-02-04T06:08:30;93758.19;;;3.21;93.47
85266;BME280;75676;49.522;19.724;2024-02-04T06:10:56;93749.22;;;3.22;93.52
85266;BME280;75676;49.522;19.724;2024-02-04T06:13:21;93746.66;;;3.18;93.56
85266;BME280;75676;49.522;19.724;2024-02-04T06:15:48;93760.09;;;3.17;93.43
85266;BME280;75676;49.522;19.724;2024-02-04T06:18:14;93761.91;;;3.23;93.27
85266;BME280;75676;49.522;19.724;2024-02-04T06:20:39;93780.63;;;3.15;93.89
85266;BME280;75676;49.522;19.724;2024-02-04T06:23:06;93788.13;;;3.13;93.35
85266;BME280;75676;49.522;19.724;2024-02-04T06:25:31;93776.91;;;3.16;93.87
85266;BME280;75676;49.522;19.724;2024-02-04T06:27:57;93775.41;;;3.15;93.83
85266;BME280;75676;49.522;19.724;2024-02-04T06:30:23;93786.66;;;3.12;93.94
85266;BME280;75676;49.522;19.724;2024-02-04T06:32:49;93802.97;;;3.19;93.87
85266;BME280;75676;49.522;19.724;2024-02-04T06:35:15;93816.41;;;3.21;93.74
85266;BME280;75676;49.522;19.724;2024-02-04T06:37:41;93817.94;;;3.15;93.77
85266;BME280;75676;49.522;19.724;2024-02-04T06:40:10;93852.63;;;3.16;93.11
85266;BME280;75676;49.522;19.724;2024-02-04T06:42:36;93848.75;;;3.31;93.05
85266;BME280;75676;49.522;19.724;2024-02-04T06:45:02;93844.69;;;3.26;92.61
85266;BME280;75676;49.522;19.724;2024-02-04T06:47:29;93846.31;;;3.13;92.71
85266;BME280;75676;49.522;19.724;2024-02-04T06:49:54;93837.75;;;3.13;90.93
85266;BME280;75676;49.522;19.724;2024-02-04T06:52:20;93848.59;;;3.11;87.25
85266;BME280;75676;49.522;19.724;2024-02-04T06:54:46;93851.38;;;3.31;86.46
85266;BME280;75676;49.522;19.724;2024-02-04T06:57:12;93838.03;;;3.22;87.51
85266;BME280;75676;49.522;19.724;2024-02-04T06:59:37;93826.72;;;3.32;85.68
85266;BME280;75676;49.522;19.724;2024-02-04T07:02:03;93833.81;;;3.31;82.76
85266;BME280;75676;49.522;19.724;2024-02-04T07:04:29;93834.41;;;3.46;81.66
85266;BME280;75676;49.522;19.724;2024-02-04T07:06:55;93849.88;;;3.30;80.72
85266;BME280;75676;49.522;19.724;2024-02-04T07:09:21;93828.97;;;3.30;79.83
85266;BME280;75676;49.522;19.724;2024-02-04T07:11:47;93824.06;;;3.39;79.74
85266;BME280;75676;49.522;19.724;2024-02-04T07:14:13;93817.66;;;3.44;79.44
85266;BME280;75676;49.522;19.724;2024-02-04T07:16:39;93819.41;;;3.54;79.17
85266;BME280;75676;49.522;19.724;2024-02-04T07:19:04;93814.47;;;3.59;79.58
85266;BME280;75676;49.522;19.724;2024-02-04T07:21:30;93813.34;;;3.60;80.73
85266;BME280;75676;49.522;19.724;2024-02-04T07:23:56;93812.19;;;3.65;79.82
85266;BME280;75676;49.522;19.724;2024-02-04T07:26:22;93798.28;;;3.71;78.50
85266;BME280;75676;49.522;19.724;2024-02-04T07:28:48;93802.47;;;3.62;80.37
85266;BME280;75676;49.522;19.724;2024-02-04T07:31:14;93817.44;;;3.61;82.64
85266;BME280;75676;49.522;19.724;2024-02-04T07:33:40;93820.88;;;3.55;83.44
85266;BME280;75676;49.522;19.724;2024-02-04T07:36:06;93814.53;;;3.56;84.88
85266;BME280;75676;49.522;19.724;2024-02-04T07:38:31;93821.31;;;3.50;85.65
85266;BME280;75676;49.522;19.724;2024-02-04T07:40:57;93806.41;;;3.47;85.75
85266;BME280;75676;49.522;19.724;2024-02-04T07:43:25;93808.59;;;3.52;85.39
85266;BME280;75676;49.522;19.724;2024-02-04T07:45:50;93804.41;;;3.58;85.80
85266;BME280;75676;49.522;19.724;2024-02-04T07:48:16;93811.44;;;3.64;86.81
85266;BME280;75676;49.522;19.724;2024-02-04T07:50:43;93794.06;;;3.51;86.67
85266;BME280;75676;49.522;19.724;2024-02-04T07:53:08;93803.47;;;3.45;87.09
85266;BME280;75676;49.522;19.724;2024-02-04T07:55:34;93804.63;;;3.40;86.31
85266;BME280;75676;49.522;19.724;2024-02-04T07:58:00;93793.56;;;3.25;87.32
85266;BME280;75676;49.522;19.724;2024-02-04T08:00:26;93802.03;;;3.36;87.45
85266;BME280;75676;49.522;19.724;2024-02-04T08:02:51;93798.31;;;3.37;87.49
85266;BME280;75676;49.522;19.724;2024-02-04T08:05:17;93796.94;;;3.26;87.08
85266;BME280;75676;49.522;19.724;2024-02-04T08:07:43;93803.81;;;3.13;87.97
85266;BME280;75676;49.522;19.724;2024-02-04T08:10:09;93813.19;;;3.07;88.65
85266;BME280;75676;49.522;19.724;2024-02-04T08:12:35;93804.94;;;3.08;88.58
85266;BME280;75676;49.522;19.724;2024-02-04T08:15:01;93806.41;;;3.13;88.49
85266;BME280;75676;49.522;19.724;2024-02-04T08:17:28;93810.09;;;3.15;88.23
85266;BME280;75676;49.522;19.724;2024-02-04T08:19:57;93816.34;;;3.25;87.90
85266;BME280;75676;49.522;19.724;2024-02-04T08:22:22;93816.22;;;3.35;87.19
85266;BME280;75676;49.522;19.724;2024-02-04T08:24:48;93818.31;;;3.14;88.38
85266;BME280;75676;49.522;19.724;2024-02-04T08:27:14;93815.59;;;3.24;88.46
85266;BME280;75676;49.522;19.724;2024-02-04T08:29:43;93815.53;;;3.31;88.41
85266;BME280;75676;49.522;19.724;2024-02-04T08:32:09;93810.38;;;3.24;88.73
85266;BME280;75676;49.522;19.724;2024-02-04T08:34:35;93817.78;;;3.33;88.59
85266;BME280;75676;49.522;19.724;2024-02-04T08:37:02;93810.00;;;3.26;89.38
85266;BME280;75676;49.522;19.724;2024-02-04T08:39:28;93803.47;;;3.45;89.00
85266;BME280;75676;49.522;19.724;2024-02-04T08:41:55;93808.16;;;3.57;88.82
85266;BME280;75676;49.522;19.724;2024-02-04T08:44:21;93797.91;;;3.69;88.42
85266;BME280;75676;49.522;19.724;2024-02-04T08:46:47;93798.31;;;3.98;87.67
85266;BME280;75676;49.522;19.724;2024-02-04T08:49:12;93799.38;;;4.01;87.19
85266;BME280;75676;49.522;19.724;2024-02-04T08:51:38;93782.69;;;4.18;87.17
85266;BME280;75676;49.522;19.724;2024-02-04T08:54:04;93784.25;;;4.15;86.52
85266;BME280;75676;49.522;19.724;2024-02-04T08:56:29;93791.53;;;4.01;87.10
85266;BME280;75676;49.522;19.724;2024-02-04T08:58:56;93786.97;;;3.78;88.15
85266;BME280;75676;49.522;19.724;2024-02-04T09:01:21;93789.09;;;3.60;88.17
85266;BME280;75676;49.522;19.724;2024-02-04T09:03:47;93797.38;;;3.51;88.27
85266;BME280;75676;49.522;19.724;2024-02-04T09:06:13;93806.25;;;3.61;88.36
85266;BME280;75676;49.522;19.724;2024-02-04T09:08:39;93811.34;;;3.71;87.29
85266;BME280;75676;49.522;19.724;2024-02-04T09:11:05;93832.53;;;3.80;86.49
85266;BME280;75676;49.522;19.724;2024-02-04T09:13:30;93826.50;;;3.53;87.41
85266;BME280;75676;49.522;19.724;2024-02-04T09:15:56;93821.88;;;3.34;89.16
85266;BME280;75676;49.522;19.724;2024-02-04T09:18:22;93829.91;;;3.47;89.03
85266;BME280;75676;49.522;19.724;2024-02-04T09:20:48;93839.13;;;3.58;88.07
85266;BME280;75676;49.522;19.724;2024-02-04T09:23:13;93841.97;;;3.71;87.83
85266;BME280;75676;49.522;19.724;2024-02-04T09:25:39;93840.78;;;3.45;88.09
85266;BME280;75676;49.522;19.724;2024-02-04T09:28:05;93843.81;;;3.40;89.12
85266;BME280;75676;49.522;19.724;2024-02-04T09:30:31;93880.03;;;3.38;88.73
85266;BME280;75676;49.522;19.724;2024-02-04T09:32:57;93882.47;;;3.18;89.22
85266;BME280;75676;49.522;19.724;2024-02-04T09:35:22;93869.66;;;3.31;89.02
85266;BME280;75676;49.522;19.724;2024-02-04T09:37:48;93867.44;;;3.63;86.68
85266;BME280;75676;49.522;19.724;2024-02-04T09:40:15;93849.16;;;4.24;84.68
85266;BME280;75676;49.522;19.724;2024-02-04T09:42:40;93854.56;;;5.53;83.86
85266;BME280;75676;49.522;19.724;2024-02-04T09:45:07;93857.09;;;7.16;78.86
85266;BME280;75676;49.522;19.724;2024-02-04T09:47:34;93848.84;;;7.31;75.04
85266;BME280;75676;49.522;19.724;2024-02-04T09:50:01;93861.03;;;6.92;75.84
85266;BME280;75676;49.522;19.724;2024-02-04T09:52:33;93855.31;;;7.71;70.30
85266;BME280;75676;49.522;19.724;2024-02-04T09:55:00;93871.38;;;6.99;73.12
85266;BME280;75676;49.522;19.724;2024-02-04T09:57:31;93887.00;;;6.02;74.11
85266;BME280;75676;49.522;19.724;2024-02-04T09:59:59;93883.31;;;5.57;77.13
85266;BME280;75676;49.522;19.724;2024-02-04T10:02:25;93884.16;;;5.54;78.55
85266;BME280;75676;49.522;19.724;2024-02-04T10:04:52;93878.13;;;5.33;78.62
85266;BME280;75676;49.522;19.724;2024-02-04T10:07:18;93885.28;;;5.53;79.92
85266;BME280;75676;49.522;19.724;2024-02-04T10:09:44;93872.66;;;7.97;71.18
85266;BME280;75676;49.522;19.724;2024-02-04T10:12:11;93861.56;;;10.07;66.40
85266;BME280;75676;49.522;19.724;2024-02-04T10:14:38;93865.72;;;11.37;59.84
85266;BME280;75676;49.522;19.724;2024-02-04T10:17:04;93856.16;;;11.94;57.44
85266;BME280;75676;49.522;19.724;2024-02-04T10:19:30;93858.59;;;11.07;55.57
85266;BME280;75676;49.522;19.724;2024-02-04T10:22:04;93823.69;;;8.13;62.21
85266;BME280;75676;49.522;19.724;2024-02-04T10:24:30;93836.09;;;7.58;65.96
85266;BME280;75676;49.522;19.724;2024-02-04T10:26:56;93838.88;;;6.93;66.35
85266;BME280;75676;49.522;19.724;2024-02-04T10:29:23;93836.16;;;6.64;65.34
85266;BME280;75676;49.522;19.724;2024-02-04T10:31:56;93831.97;;;6.51;64.19
85266;BME280;75676;49.522;19.724;2024-02-04T10:34:25;93808.97;;;6.39;66.29
85266;BME280;75676;49.522;19.724;2024-02-04T10:36:51;93809.09;;;5.99;66.05
85266;BME280;75676;49.522;19.724;2024-02-04T10:39:17;93820.66;;;5.82;67.79
85266;BME280;75676;49.522;19.724;2024-02-04T10:41:51;93813.16;;;5.44;68.83
85266;BME280;75676;49.522;19.724;2024-02-04T10:44:21;93816.44;;;5.29;69.64
85266;BME280;75676;49.522;19.724;2024-02-04T10:46:49;93820.50;;;5.10;72.94
85266;BME280;75676;49.522;19.724;2024-02-04T10:49:15;93783.94;;;5.03;72.19
85266;BME280;75676;49.522;19.724;2024-02-04T10:51:45;93795.50;;;4.86;77.12
85266;BME280;75676;49.522;19.724;2024-02-04T10:54:14;93794.69;;;5.08;77.44
85266;BME280;75676;49.522;19.724;2024-02-04T10:56:45;93788.25;;;5.13;76.53
85266;BME280;75676;49.522;19.724;2024-02-04T10:59:15;93778.84;;;5.16;77.53
85266;BME280;75676;49.522;19.724;2024-02-04T11:01:43;93775.22;;;5.10;77.83
85266;BME280;75676;49.522;19.724;2024-02-04T11:04:11;93769.38;;;5.02;77.39
85266;BME280;75676;49.522;19.724;2024-02-04T11:06:38;93768.38;;;4.96;77.54
85266;BME280;75676;49.522;19.724;2024-02-04T11:09:06;93769.63;;;5.07;77.96
85266;BME280;75676;49.522;19.724;2024-02-04T11:11:36;93759.75;;;5.35;77.52
85266;BME280;75676;49.522;19.724;2024-02-04T11:14:05;93749.59;;;5.57;76.70
85266;BME280;75676;49.522;19.724;2024-02-04T11:21:59;93739.53;;;6.72;73.14
85266;BME280;75676;49.522;19.724;2024-02-04T11:24:45;93743.81;;;6.66;71.89
85266;BME280;75676;49.522;19.724;2024-02-04T11:27:16;93731.25;;;6.73;71.55
85266;BME280;75676;49.522;19.724;2024-02-04T11:29:42;93724.28;;;6.67;72.79
85266;BME280;75676;49.522;19.724;2024-02-04T11:32:09;93718.31;;;6.34;71.75
85266;BME280;75676;49.522;19.724;2024-02-04T11:34:34;93712.69;;;6.19;73.19
85266;BME280;75676;49.522;19.724;2024-02-04T11:37:02;93705.22;;;6.02;73.41
85266;BME280;75676;49.522;19.724;2024-02-04T11:39:28;93705.84;;;6.06;72.69
85266;BME280;75676;49.522;19.724;2024-02-04T11:41:54;93698.47;;;6.17;73.26
85266;BME280;75676;49.522;19.724;2024-02-04T11:44:24;93695.78;;;6.04;72.53
85266;BME280;75676;49.522;19.724;2024-02-04T11:46:50;93689.72;;;6.07;70.67
85266;BME280;75676;49.522;19.724;2024-02-04T11:49:19;93693.31;;;5.97;71.70
85266;BME280;75676;49.522;19.724;2024-02-04T11:51:53;93688.41;;;5.99;72.36
85266;BME280;75676;49.522;19.724;2024-02-04T11:54:20;93678.72;;;5.96;73.98
85266;BME280;75676;49.522;19.724;2024-02-04T11:56:51;93681.91;;;5.87;74.21
85266;BME280;75676;49.522;19.724;2024-02-04T11:59:25;93687.94;;;5.84;73.38
85266;BME280;75676;49.522;19.724;2024-02-04T12:01:55;93674.56;;;5.79;73.16
85266;BME280;75676;49.522;19.724;2024-02-04T12:04:22;93674.44;;;5.86;73.75
85266;BME280;75676;49.522;19.724;2024-02-04T12:06:50;93660.44;;;5.93;74.69
85266;BME280;75676;49.522;19.724;2024-02-04T12:09:19;93669.38;;;5.95;74.75
85266;BME280;75676;49.522;19.724;2024-02-04T12:11:45;93671.88;;;5.66;76.46
85266;BME280;75676;49.522;19.724;2024-02-04T12:14:12;93674.97;;;5.45;77.10
85266;BME280;75676;49.522;19.724;2024-02-04T12:16:39;93667.84;;;5.26;79.26
85266;BME280;75676;49.522;19.724;2024-02-04T12:19:05;93669.00;;;5.05;80.65
85266;BME280;75676;49.522;19.724;2024-02-04T12:21:32;93652.50;;;4.88;82.45
85266;BME280;75676;49.522;19.724;2024-02-04T12:23:58;93653.38;;;4.82;82.91
85266;BME280;75676;49.522;19.724;2024-02-04T12:26:25;93642.81;;;4.65;84.28
85266;BME280;75676;49.522;19.724;2024-02-04T12:28:51;93631.22;;;4.47;85.84
85266;BME280;75676;49.522;19.724;2024-02-04T12:31:18;93632.94;;;4.34;86.45
85266;BME280;75676;49.522;19.724;2024-02-04T12:33:55;93636.41;;;4.27;87.24
85266;BME280;75676;49.522;19.724;2024-02-04T12:36:30;93614.81;;;4.23;86.93
85266;BME280;75676;49.522;19.724;2024-02-04T12:38:57;93612.94;;;4.23;86.78
85266;BME280;75676;49.522;19.724;2024-02-04T12:41:24;93632.38;;;4.22;86.38
85266;BME280;75676;49.522;19.724;2024-02-04T12:43:58;93628.81;;;4.13;86.77
85266;BME280;75676;49.522;19.724;2024-02-04T12:46:24;93625.53;;;4.09;87.68
85266;BME280;75676;49.522;19.724;2024-02-04T12:48:57;93608.97;;;4.15;87.51
85266;BME280;75676;49.522;19.724;2024-02-04T12:51:26;93615.47;;;4.27;86.53
85266;BME280;75676;49.522;19.724;2024-02-04T12:54:25;93616.34;;;4.20;87.00
85266;BME280;75676;49.522;19.724;2024-02-04T12:56:52;93609.75;;;4.12;86.80
85266;BME280;75676;49.522;19.724;2024-02-04T12:59:30;93607.41;;;4.18;87.30
85266;BME280;75676;49.522;19.724;2024-02-04T13:01:58;93600.97;;;4.22;87.31
85266;BME280;75676;49.522;19.724;2024-02-04T13:04:24;93599.44;;;4.25;87.49
85266;BME280;75676;49.522;19.724;2024-02-04T13:06:51;93604.06;;;4.17;87.93
85266;BME280;75676;49.522;19.724;2024-02-04T13:09:18;93602.66;;;4.13;88.14